createdAt,value
2019-02-05T00:02:32.258Z,27.70
2019-02-05T00:05:06.505Z,27.33
2019-02-05T00:07:40.148Z,31.60
2019-02-05T00:10:13.858Z,30.03
2019-02-05T00:12:47.488Z,36.20
2019-02-05T00:15:21.224Z,36.73
2019-02-05T00:17:55.122Z,34.17
2019-02-05T00:20:28.873Z,30.77
2019-02-05T00:23:02.542Z,29.20
2019-02-05T00:25:36.229Z,31.00
2019-02-05T00:28:09.862Z,35.70
2019-02-05T00:30:44.656Z,33.77
2019-02-05T00:33:18.305Z,28.80
2019-02-05T00:35:51.894Z,31.63
2019-02-05T00:38:25.530Z,31.67
2019-02-05T00:40:59.119Z,31.27
2019-02-05T00:43:35.448Z,35.13
2019-02-05T00:46:09.056Z,38.07
2019-02-05T00:48:42.710Z,36.33
2019-02-05T00:51:16.357Z,37.80
2019-02-05T00:53:50.013Z,36.80
2019-02-05T00:56:23.681Z,33.53
2019-02-05T00:58:57.312Z,35.93
2019-02-05T01:01:31.346Z,37.27
2019-02-05T01:04:05.929Z,35.57
2019-02-05T01:06:39.582Z,35.53
2019-02-05T01:09:13.206Z,37.90
2019-02-05T01:11:46.810Z,35.77
2019-02-05T01:14:20.456Z,37.57
2019-02-05T01:16:54.069Z,32.70
2019-02-05T01:19:27.785Z,43.70
2019-02-05T01:22:01.362Z,35.10
2019-02-05T01:24:35.004Z,36.87
2019-02-05T01:27:08.584Z,39.03
2019-02-05T01:29:42.227Z,42.47
2019-02-05T01:32:15.874Z,39.17
2019-02-05T01:34:49.612Z,36.30
2019-02-05T01:37:23.294Z,39.13
2019-02-05T01:39:56.939Z,38.60
2019-02-05T01:42:30.582Z,37.67
2019-02-05T01:45:07.556Z,35.60
2019-02-05T01:47:41.376Z,38.10
2019-02-05T01:50:18.190Z,38.87
2019-02-05T01:52:51.958Z,33.03
2019-02-05T01:55:26.070Z,35.67
2019-02-05T01:57:59.692Z,36.00
2019-02-05T02:00:35.647Z,36.77
2019-02-05T02:03:09.487Z,36.33
2019-02-05T02:05:43.730Z,35.80
2019-02-05T02:08:17.570Z,38.50
2019-02-05T02:10:51.355Z,38.13
2019-02-05T02:13:25.028Z,39.70
2019-02-05T02:15:59.020Z,41.43
2019-02-05T02:18:32.636Z,37.87
2019-02-05T02:21:06.332Z,39.53
2019-02-05T02:23:40.056Z,36.67
2019-02-05T02:26:13.683Z,38.80
2019-02-05T02:28:47.688Z,38.07
2019-02-05T02:31:21.438Z,37.80
2019-02-05T02:33:55.014Z,40.93
2019-02-05T02:36:28.664Z,39.33
2019-02-05T02:39:02.310Z,33.87
2019-02-05T02:41:36.018Z,34.13
2019-02-05T02:44:09.670Z,44.17
2019-02-05T02:46:43.282Z,37.80
2019-02-05T02:49:17.004Z,39.43
2019-02-05T02:51:50.651Z,36.73
2019-02-05T02:54:24.296Z,31.33
2019-02-05T02:57:04.844Z,34.40
2019-02-05T02:59:33.188Z,32.70
2019-02-05T03:02:07.362Z,33.77
2019-02-05T03:04:40.958Z,35.53
2019-02-05T03:07:14.646Z,34.03
2019-02-05T03:09:48.247Z,32.23
2019-02-05T03:12:22.110Z,35.53
2019-02-05T03:14:55.764Z,36.47
2019-02-05T03:17:29.368Z,37.50
2019-02-05T03:20:03.134Z,42.17
2019-02-05T03:22:36.793Z,42.03
2019-02-05T03:25:13.844Z,34.73
2019-02-05T03:27:47.866Z,34.63
2019-02-05T03:30:24.589Z,32.57
2019-02-05T03:32:58.861Z,35.17
2019-02-05T03:35:32.691Z,37.53
2019-02-05T03:38:06.797Z,36.40
2019-02-05T03:40:58.593Z,31.00
2019-02-05T03:43:32.410Z,31.53
2019-02-05T03:46:07.073Z,34.57
2019-02-05T03:48:41.596Z,39.17
2019-02-05T03:51:24.288Z,32.27
2019-02-05T03:54:23.333Z,32.50
2019-02-05T03:57:05.707Z,30.23
2019-02-05T04:00:17.012Z,29.80
2019-02-05T04:03:02.571Z,33.93
2019-02-05T04:06:00.099Z,31.47
2019-02-05T04:08:48.622Z,29.90
2019-02-05T04:11:40.229Z,35.60
2019-02-05T04:14:31.764Z,34.77
2019-02-05T04:17:08.464Z,30.17
2019-02-05T04:19:51.069Z,33.07
2019-02-05T04:22:48.536Z,30.10
2019-02-05T04:25:28.246Z,34.80
2019-02-05T04:28:13.947Z,32.83
2019-02-05T04:31:13.070Z,35.40
2019-02-05T04:34:01.599Z,32.70
2019-02-05T04:36:47.544Z,34.90
2019-02-05T04:42:41.029Z,33.47
2019-02-05T04:45:34.057Z,33.93
2019-02-05T04:48:13.813Z,33.07
2019-02-05T04:51:05.327Z,32.83
2019-02-05T04:53:59.547Z,37.37
2019-02-05T04:56:53.005Z,32.80
2019-02-05T04:59:29.758Z,33.17
2019-02-05T05:02:11.782Z,32.93
2019-02-05T05:04:56.925Z,34.83
2019-02-05T05:07:51.259Z,28.77
2019-02-05T05:10:24.933Z,32.00
2019-02-05T05:12:58.574Z,31.87
2019-02-05T05:15:32.295Z,29.90
2019-02-05T05:18:06.073Z,34.83
2019-02-05T05:20:40.305Z,31.10
2019-02-05T05:23:14.383Z,35.47
2019-02-05T05:25:48.078Z,33.67
2019-02-05T05:28:21.841Z,34.20
2019-02-05T05:30:56.165Z,33.77
2019-02-05T05:33:29.877Z,25.27
2019-02-05T05:36:03.558Z,32.70
2019-02-05T05:38:37.202Z,35.17
2019-02-05T05:41:10.806Z,30.50
2019-02-05T05:43:44.413Z,39.37
2019-02-05T05:46:18.092Z,31.07
2019-02-05T05:48:51.709Z,28.80
2019-02-05T05:51:25.433Z,27.37
2019-02-05T05:53:59.127Z,28.70
2019-02-05T05:56:32.826Z,27.23
2019-02-05T05:59:06.675Z,30.63
2019-02-05T06:01:40.413Z,31.83
2019-02-05T06:04:14.039Z,29.80
2019-02-05T06:06:48.053Z,28.63
2019-02-05T06:09:21.746Z,33.33
2019-02-05T06:11:55.333Z,29.80
2019-02-05T06:14:29.468Z,29.67
2019-02-05T06:17:03.272Z,30.13
2019-02-05T06:19:37.023Z,26.73
2019-02-05T06:22:10.603Z,24.13
2019-02-05T06:24:44.354Z,27.30
2019-02-05T06:27:18.393Z,29.67
2019-02-05T06:29:52.433Z,28.73
2019-02-05T06:32:26.057Z,29.70
2019-02-05T06:34:59.681Z,27.07
2019-02-05T06:37:33.379Z,31.53
2019-02-05T06:40:10.055Z,26.43
2019-02-05T06:42:43.764Z,27.90
2019-02-05T06:45:17.485Z,29.50
2019-02-05T06:47:51.097Z,34.33
2019-02-05T06:50:24.777Z,31.70
2019-02-05T06:52:58.683Z,28.97
2019-02-05T06:55:32.280Z,25.13
2019-02-05T06:58:06.237Z,31.93
2019-02-05T07:00:39.887Z,25.97
2019-02-05T07:03:13.870Z,28.57
2019-02-05T07:05:47.456Z,32.10
2019-02-05T07:08:21.261Z,26.43
2019-02-05T07:10:54.923Z,30.93
2019-02-05T07:13:28.609Z,32.30
2019-02-05T07:16:02.711Z,32.17
2019-02-05T07:18:36.366Z,26.80
2019-02-05T07:21:10.023Z,30.37
2019-02-05T07:23:43.841Z,32.00
2019-02-05T07:26:19.195Z,33.73
2019-02-05T07:28:58.396Z,31.03
2019-02-05T07:31:28.383Z,36.43
2019-02-05T07:34:01.980Z,35.27
2019-02-05T07:36:41.628Z,32.67
2019-02-05T07:39:15.619Z,34.00
2019-02-05T07:41:49.243Z,35.27
2019-02-05T07:44:22.893Z,33.77
2019-02-05T07:46:56.603Z,29.97
2019-02-05T07:49:30.203Z,34.00
2019-02-05T07:52:04.232Z,37.50
2019-02-05T07:54:37.892Z,35.83
2019-02-05T07:57:11.662Z,33.77
2019-02-05T07:59:47.093Z,35.97
2019-02-05T08:02:20.603Z,40.23
2019-02-05T08:04:54.273Z,36.87
2019-02-05T08:07:27.974Z,32.07
2019-02-05T08:10:01.793Z,36.10
2019-02-05T08:12:35.429Z,35.50
2019-02-05T08:15:12.210Z,38.43
2019-02-05T08:17:46.077Z,36.33
2019-02-05T08:20:19.727Z,41.53
2019-02-05T08:22:53.496Z,37.97
2019-02-05T08:25:27.240Z,34.07
2019-02-05T08:28:00.950Z,37.70
2019-02-05T08:30:43.484Z,33.93
2019-02-05T08:33:17.532Z,33.27
2019-02-05T08:35:51.092Z,34.37
2019-02-05T08:38:24.763Z,31.87
2019-02-05T08:40:58.404Z,39.00
2019-02-05T08:43:32.022Z,36.87
2019-02-05T08:46:05.835Z,33.90
2019-02-05T08:48:39.565Z,29.73
2019-02-05T08:51:13.522Z,29.83
2019-02-05T08:53:47.353Z,28.77
2019-02-05T08:56:21.049Z,31.73
2019-02-05T08:58:54.676Z,29.40
2019-02-05T09:01:28.506Z,32.80
2019-02-05T09:04:02.501Z,27.60
2019-02-05T09:06:36.176Z,35.63
2019-02-05T09:09:09.918Z,33.00
2019-02-05T09:11:43.640Z,36.43
2019-02-05T09:14:17.274Z,35.53
2019-02-05T09:16:52.166Z,36.37
2019-02-05T09:19:25.803Z,32.43
2019-02-05T09:21:59.457Z,35.90
2019-02-05T09:24:34.792Z,36.57
2019-02-05T09:27:08.870Z,37.20
2019-02-05T09:29:42.439Z,36.93
2019-02-05T09:32:16.144Z,34.90
2019-02-05T09:34:49.798Z,34.83
2019-02-05T09:37:23.413Z,34.83
2019-02-05T09:39:57.242Z,32.77
2019-02-05T09:42:30.967Z,32.90
2019-02-05T09:45:07.744Z,34.90
2019-02-05T09:47:41.402Z,33.43
2019-02-05T09:50:19.302Z,35.40
2019-02-05T09:52:52.954Z,34.23
2019-02-05T09:55:27.093Z,34.97
2019-02-05T09:58:00.815Z,33.27
2019-02-05T10:00:37.530Z,37.37
2019-02-05T10:03:11.181Z,37.43
2019-02-05T10:05:45.148Z,32.20
2019-02-05T10:08:18.820Z,38.10
2019-02-05T10:10:52.426Z,36.33
2019-02-05T10:13:26.428Z,38.87
2019-02-05T10:16:04.006Z,38.60
2019-02-05T10:18:37.617Z,34.73
2019-02-05T10:21:11.259Z,35.67
2019-02-05T10:23:44.912Z,38.10
2019-02-05T10:26:18.594Z,33.23
2019-02-05T10:28:52.194Z,39.70
2019-02-05T10:31:25.826Z,38.17
2019-02-05T10:33:59.479Z,34.87
2019-02-05T10:36:33.471Z,37.40
2019-02-05T10:39:09.675Z,40.20
2019-02-05T10:41:43.305Z,35.20
2019-02-05T10:44:16.976Z,41.50
2019-02-05T10:46:50.703Z,42.40
2019-02-05T10:49:24.372Z,40.73
2019-02-05T10:51:58.031Z,40.23
2019-02-05T10:54:31.779Z,36.87
2019-02-05T10:57:06.266Z,37.60
2019-02-05T10:59:40.182Z,37.93
2019-02-05T11:02:13.973Z,38.50
2019-02-05T11:04:47.670Z,45.37
2019-02-05T11:07:21.466Z,40.00
2019-02-05T11:09:55.048Z,41.33
2019-02-05T11:12:28.850Z,40.90
2019-02-05T11:15:02.618Z,45.63
2019-02-05T11:17:36.278Z,42.93
2019-02-05T11:20:15.492Z,36.43
2019-02-05T11:22:49.450Z,45.47
2019-02-05T11:25:23.592Z,35.00
2019-02-05T11:27:57.283Z,39.63
2019-02-05T11:30:36.288Z,36.20
2019-02-05T11:33:10.018Z,41.67
2019-02-05T11:35:43.768Z,43.67
2019-02-05T11:38:17.456Z,45.13
2019-02-05T11:40:51.182Z,43.47
2019-02-05T11:43:24.883Z,44.03
2019-02-05T11:45:58.931Z,39.93
2019-02-05T11:48:32.784Z,39.70
2019-02-05T11:51:06.374Z,40.27
2019-02-05T11:53:40.076Z,37.67
2019-02-05T11:56:13.730Z,40.33
2019-02-05T11:58:47.670Z,39.53
2019-02-05T12:01:21.407Z,44.53
2019-02-05T12:03:55.124Z,38.97
2019-02-05T12:06:29.050Z,34.47
2019-02-05T12:09:02.988Z,37.77
2019-02-05T12:11:36.573Z,35.03
2019-02-05T12:14:10.295Z,34.53
2019-02-05T12:16:43.882Z,44.43
2019-02-05T12:19:17.533Z,37.60
2019-02-05T12:21:51.168Z,36.77
2019-02-05T12:24:24.844Z,45.17
2019-02-05T12:26:58.513Z,38.90
2019-02-05T12:29:32.248Z,35.50
2019-02-05T12:32:05.990Z,39.37
2019-02-05T12:34:39.984Z,39.93
2019-02-05T12:37:13.637Z,33.83
2019-02-05T12:39:47.589Z,36.13
2019-02-05T12:42:21.322Z,37.80
2019-02-05T12:44:56.564Z,34.00
2019-02-05T12:47:30.459Z,37.37
2019-02-05T12:50:07.539Z,36.40
2019-02-05T12:52:41.131Z,35.50
2019-02-05T12:55:16.339Z,37.47
2019-02-05T12:57:50.178Z,38.37
2019-02-05T13:00:35.879Z,37.77
2019-02-05T13:03:10.526Z,36.97
2019-02-05T13:05:44.492Z,36.57
2019-02-05T13:08:18.224Z,36.80
2019-02-05T13:10:53.936Z,38.47
2019-02-05T13:13:27.579Z,34.23
2019-02-05T13:16:01.357Z,31.60
2019-02-05T13:18:35.015Z,40.13
2019-02-05T13:21:08.750Z,40.20
2019-02-05T13:23:42.387Z,37.07
2019-02-05T13:26:16.118Z,38.30
2019-02-05T13:28:49.892Z,39.07
2019-02-05T13:31:23.469Z,39.80
2019-02-05T13:33:58.578Z,44.67
2019-02-05T13:36:32.177Z,38.10
2019-02-05T13:39:09.164Z,38.87
2019-02-05T13:41:42.761Z,36.67
2019-02-05T13:44:16.543Z,37.43
2019-02-05T13:46:50.217Z,35.90
2019-02-05T13:49:24.372Z,36.47
2019-02-05T13:51:58.037Z,36.03
2019-02-05T13:54:31.733Z,37.97
2019-02-05T13:57:05.456Z,33.20
2019-02-05T13:59:39.078Z,34.83
2019-02-05T14:02:12.808Z,37.97
2019-02-05T14:04:46.444Z,33.93
2019-02-05T14:07:20.162Z,37.27
2019-02-05T14:09:53.947Z,40.17
2019-02-05T14:12:27.865Z,34.27
2019-02-05T14:15:01.516Z,35.70
2019-02-05T14:17:35.858Z,36.50
2019-02-05T14:20:13.114Z,37.57
2019-02-05T14:22:47.135Z,37.00
2019-02-05T14:25:20.883Z,43.17
2019-02-05T14:27:54.619Z,41.20
2019-02-05T14:30:34.051Z,43.80
2019-02-05T14:33:08.202Z,34.43
2019-02-05T14:35:41.875Z,43.87
2019-02-05T14:38:15.650Z,39.20
2019-02-05T14:40:49.369Z,46.93
2019-02-05T14:43:22.997Z,47.20
2019-02-05T14:45:56.664Z,47.07
2019-02-05T14:48:30.523Z,42.60
2019-02-05T14:51:04.668Z,46.07
2019-02-05T14:53:38.344Z,36.73
2019-02-05T14:56:13.542Z,41.50
2019-02-05T14:58:47.225Z,45.20
2019-02-05T15:01:20.889Z,39.50
2019-02-05T15:03:54.578Z,40.70
2019-02-05T15:06:28.827Z,40.23
2019-02-05T15:09:02.539Z,41.67
2019-02-05T15:11:36.527Z,44.83
2019-02-05T15:14:10.301Z,41.43
2019-02-05T15:16:44.288Z,43.00
2019-02-05T15:19:18.123Z,46.60
2019-02-05T15:21:51.964Z,41.50
2019-02-05T15:24:36.858Z,42.40
2019-02-05T15:27:00.947Z,42.00
2019-02-05T15:29:34.608Z,39.27
2019-02-05T15:32:08.760Z,38.37
2019-02-05T15:34:42.644Z,42.67
2019-02-05T15:37:16.223Z,40.77
2019-02-05T15:39:49.852Z,38.63
2019-02-05T15:42:23.542Z,41.37
2019-02-05T15:44:57.876Z,38.73
2019-02-05T15:47:31.651Z,40.90
2019-02-05T15:50:08.777Z,35.63
2019-02-05T15:52:42.503Z,38.33
2019-02-05T15:55:16.795Z,37.13
2019-02-05T15:57:50.446Z,33.87
2019-02-05T16:00:27.555Z,38.57
2019-02-05T16:03:01.717Z,41.27
2019-02-05T16:05:35.443Z,40.40
2019-02-05T16:08:09.302Z,39.00
2019-02-05T16:10:43.405Z,39.77
2019-02-05T16:13:17.028Z,43.53
2019-02-05T16:15:50.629Z,38.73
2019-02-05T16:18:24.389Z,43.13
2019-02-05T16:20:59.094Z,38.83
2019-02-05T16:23:32.963Z,40.77
2019-02-05T16:26:06.653Z,40.80
2019-02-05T16:28:40.305Z,41.47
2019-02-05T16:31:13.931Z,41.87
2019-02-05T16:33:47.866Z,38.27
2019-02-05T16:36:22.211Z,42.83
2019-02-05T16:38:55.939Z,44.73
2019-02-05T16:41:29.532Z,37.23
2019-02-05T16:44:03.179Z,42.23
2019-02-05T16:46:36.753Z,48.20
2019-02-05T16:49:10.554Z,41.17
2019-02-05T16:51:44.183Z,42.93
2019-02-05T16:54:17.803Z,45.10
2019-02-05T16:56:51.434Z,46.47
2019-02-05T16:59:25.024Z,44.30
2019-02-05T17:01:58.606Z,44.90
2019-02-05T17:04:32.269Z,38.40
2019-02-05T17:07:07.630Z,44.27
2019-02-05T17:09:42.076Z,46.93
2019-02-05T17:12:15.666Z,41.70
2019-02-05T17:14:49.359Z,46.77
2019-02-05T17:17:23.436Z,44.77
2019-02-05T17:19:57.176Z,42.40
2019-02-05T17:22:30.855Z,50.70
2019-02-05T17:25:07.614Z,38.03
2019-02-05T17:27:41.357Z,40.33
2019-02-05T17:30:20.427Z,46.90
2019-02-05T17:32:54.167Z,43.33
2019-02-05T17:35:27.877Z,42.03
2019-02-05T17:38:01.848Z,41.13
2019-02-05T17:40:35.912Z,43.80
2019-02-05T17:43:09.906Z,42.10
2019-02-05T17:45:44.217Z,38.20
2019-02-05T17:48:18.102Z,42.63
2019-02-05T17:50:51.885Z,43.33
2019-02-05T17:53:25.575Z,41.50
2019-02-05T17:56:01.138Z,44.90
2019-02-05T17:58:35.050Z,40.13
2019-02-05T18:01:10.675Z,42.03
2019-02-05T18:03:44.540Z,41.00
2019-02-05T18:06:20.361Z,38.97
2019-02-05T18:08:54.032Z,42.80
2019-02-05T18:11:28.023Z,38.37
2019-02-05T18:14:01.730Z,40.23
2019-02-05T18:16:35.382Z,40.07
2019-02-05T18:19:09.149Z,44.20
2019-02-05T18:21:42.757Z,37.17
2019-02-05T18:24:16.514Z,45.13
2019-02-05T18:26:50.101Z,44.00
2019-02-05T18:29:23.725Z,38.87
2019-02-05T18:31:57.416Z,41.60
2019-02-05T18:34:31.077Z,39.73
2019-02-05T18:37:04.841Z,38.93
2019-02-05T18:39:40.075Z,44.63
2019-02-05T18:42:13.848Z,41.43
2019-02-05T18:44:48.218Z,40.77
2019-02-05T18:47:22.102Z,49.10
2019-02-05T18:49:55.675Z,44.80
2019-02-05T18:52:29.372Z,44.00
2019-02-05T18:55:03.109Z,46.60
2019-02-05T18:57:36.887Z,40.20
2019-02-05T19:00:20.095Z,39.50
2019-02-05T19:02:53.743Z,42.57
2019-02-05T19:05:28.061Z,44.07
2019-02-05T19:08:02.034Z,41.97
2019-02-05T19:10:35.896Z,40.63
2019-02-05T19:13:09.685Z,40.23
2019-02-05T19:15:43.358Z,42.00
2019-02-05T19:18:17.131Z,43.63
2019-02-05T19:20:50.728Z,47.60
2019-02-05T19:23:24.340Z,41.13
2019-02-05T19:26:08.471Z,43.97
2019-02-05T19:28:40.804Z,38.63
2019-02-05T19:31:18.972Z,37.87
2019-02-05T19:33:52.577Z,39.53
2019-02-05T19:36:26.295Z,41.47
2019-02-05T19:38:59.944Z,41.10
2019-02-05T19:41:33.589Z,37.13
2019-02-05T19:44:07.282Z,42.37
2019-02-05T19:46:42.611Z,46.03
2019-02-05T19:49:22.046Z,38.53
2019-02-05T19:51:56.042Z,42.97
2019-02-05T19:54:30.275Z,41.60
2019-02-05T19:57:04.144Z,41.43
2019-02-05T19:59:37.866Z,47.93
2019-02-05T20:02:11.956Z,43.23
2019-02-05T20:04:45.865Z,40.87
2019-02-05T20:07:19.506Z,42.93
2019-02-05T20:09:53.427Z,44.03
2019-02-05T20:12:27.255Z,41.30
2019-02-05T20:15:01.014Z,43.53
2019-02-05T20:17:34.816Z,43.13
2019-02-05T20:20:14.162Z,48.23
2019-02-05T20:22:47.947Z,45.77
2019-02-05T20:25:21.676Z,42.97
2019-02-05T20:27:55.430Z,41.30
2019-02-05T20:30:29.484Z,42.27
2019-02-05T20:33:03.198Z,37.63
2019-02-05T20:35:37.404Z,41.00
2019-02-05T20:38:11.183Z,41.73
2019-02-05T20:40:44.928Z,41.60
2019-02-05T20:43:18.582Z,41.13
2019-02-05T20:45:52.536Z,35.30
2019-02-05T20:48:26.275Z,41.60
2019-02-05T20:51:01.173Z,42.63
2019-02-05T20:53:35.625Z,40.93
2019-02-05T20:56:09.550Z,40.60
2019-02-05T20:58:44.005Z,46.60
2019-02-05T21:01:17.649Z,47.10
2019-02-05T21:04:01.051Z,42.50
2019-02-05T21:06:26.808Z,42.17
2019-02-05T21:09:00.759Z,40.60
2019-02-05T21:11:34.857Z,45.23
2019-02-05T21:14:08.668Z,48.50
2019-02-05T21:16:42.946Z,47.50
2019-02-05T21:19:17.110Z,42.87
2019-02-05T21:21:50.902Z,40.10
2019-02-05T21:24:24.541Z,44.43
2019-02-05T21:26:58.700Z,40.27
2019-02-05T21:29:32.397Z,39.80
2019-02-05T21:32:06.054Z,44.00
2019-02-05T21:34:40.001Z,45.97
2019-02-05T21:37:13.588Z,45.77
2019-02-05T21:39:47.220Z,44.27
2019-02-05T21:42:20.844Z,44.57
2019-02-05T21:44:54.506Z,42.27
2019-02-05T21:47:28.104Z,40.17
2019-02-05T21:50:01.746Z,44.90
2019-02-05T21:52:35.340Z,50.63
2019-02-05T21:55:10.708Z,50.00
2019-02-05T21:57:44.669Z,44.50
2019-02-05T22:00:35.104Z,43.40
2019-02-05T22:03:08.792Z,41.20
2019-02-05T22:05:42.550Z,40.47
2019-02-05T22:08:16.142Z,42.37
2019-02-05T22:10:51.701Z,46.00
2019-02-05T22:13:25.279Z,40.93
2019-02-05T22:15:58.936Z,44.57
2019-02-05T22:18:32.602Z,40.13
2019-02-05T22:21:07.097Z,40.33
2019-02-05T22:23:40.764Z,35.50
2019-02-05T22:26:14.395Z,41.77
2019-02-05T22:28:47.979Z,39.87
2019-02-05T22:31:21.619Z,36.87
2019-02-05T22:33:55.217Z,39.90
2019-02-05T22:36:28.913Z,40.67
2019-02-05T22:39:02.584Z,38.10
2019-02-05T22:41:36.214Z,36.83
2019-02-05T22:44:09.894Z,38.57
2019-02-05T22:46:43.920Z,36.03
2019-02-05T22:49:17.506Z,39.80
2019-02-05T22:51:51.415Z,40.40
2019-02-05T22:54:25.017Z,40.70
2019-02-05T22:56:58.684Z,37.97
2019-02-05T22:59:32.723Z,37.27
2019-02-05T23:02:06.816Z,36.53
2019-02-05T23:04:50.547Z,42.30
2019-02-05T23:07:17.826Z,37.83
2019-02-05T23:09:54.577Z,39.83
2019-02-05T23:12:31.637Z,35.70
2019-02-05T23:15:14.306Z,33.60
2019-02-05T23:17:48.075Z,36.67
2019-02-05T23:20:21.881Z,32.83
2019-02-05T23:22:57.116Z,33.23
2019-02-05T23:25:30.959Z,30.93
2019-02-05T23:28:05.041Z,32.70
2019-02-05T23:30:38.796Z,31.70
2019-02-05T23:33:12.780Z,27.37
2019-02-05T23:35:46.439Z,30.37
2019-02-05T23:38:20.108Z,30.60
2019-02-05T23:40:53.854Z,29.07
2019-02-05T23:43:27.774Z,28.53
2019-02-05T23:46:01.925Z,29.60
2019-02-05T23:48:35.745Z,33.07
2019-02-05T23:51:09.829Z,34.40
2019-02-05T23:53:43.442Z,29.53
2019-02-05T23:56:25.431Z,31.60
2019-02-05T23:58:52.622Z,34.17
